sensor_id;sensor_type;location;lat;lon;timestamp;temperature;humidity
71396;DHT22;59888;55.814;37.132;2023-04-24T00:01:50;10.39;35.77
71396;DHT22;59888;55.814;37.132;2023-04-24T00:04:16;10.43;35.72
71396;DHT22;59888;55.814;37.132;2023-04-24T00:06:42;10.40;36.00
71396;DHT22;59888;55.814;37.132;2023-04-24T00:09:09;10.37;36.21
71396;DHT22;59888;55.814;37.132;2023-04-24T00:11:36;10.38;36.34
71396;DHT22;59888;55.814;37.132;2023-04-24T00:14:02;10.38;36.34
71396;DHT22;59888;55.814;37.132;2023-04-24T00:16:28;10.29;36.43
71396;DHT22;59888;55.814;37.132;2023-04-24T00:18:54;10.22;36.94
71396;DHT22;59888;55.814;37.132;2023-04-24T00:21:20;10.24;36.86
71396;DHT22;59888;55.814;37.132;2023-04-24T00:23:47;10.22;37.31
71396;DHT22;59888;55.814;37.132;2023-04-24T00:26:13;10.18;37.51
71396;DHT22;59888;55.814;37.132;2023-04-24T00:28:39;10.18;37.50
71396;DHT22;59888;55.814;37.132;2023-04-24T00:31:05;10.07;37.87
71396;DHT22;59888;55.814;37.132;2023-04-24T00:33:31;9.98;38.27
71396;DHT22;59888;55.814;37.132;2023-04-24T00:35:57;9.91;38.49
71396;DHT22;59888;55.814;37.132;2023-04-24T00:38:23;9.94;38.41
71396;DHT22;59888;55.814;37.132;2023-04-24T00:40:49;9.96;38.43
71396;DHT22;59888;55.814;37.132;2023-04-24T00:43:16;9.96;38.47
71396;DHT22;59888;55.814;37.132;2023-04-24T00:45:42;9.97;38.45
71396;DHT22;59888;55.814;37.132;2023-04-24T00:48:09;9.93;38.46
71396;DHT22;59888;55.814;37.132;2023-04-24T00:50:38;9.80;39.04
71396;DHT22;59888;55.814;37.132;2023-04-24T00:53:04;9.71;38.69
71396;DHT22;59888;55.814;37.132;2023-04-24T00:55:30;9.74;38.71
71396;DHT22;59888;55.814;37.132;2023-04-24T00:57:57;9.76;38.78
71396;DHT22;59888;55.814;37.132;2023-04-24T01:00:23;9.76;38.62
71396;DHT22;59888;55.814;37.132;2023-04-24T01:02:49;9.74;38.28
71396;DHT22;59888;55.814;37.132;2023-04-24T01:05:17;9.66;38.56
71396;DHT22;59888;55.814;37.132;2023-04-24T01:07:45;9.67;38.55
71396;DHT22;59888;55.814;37.132;2023-04-24T01:10:15;9.64;39.02
71396;DHT22;59888;55.814;37.132;2023-04-24T01:12:46;9.65;38.36
71396;DHT22;59888;55.814;37.132;2023-04-24T01:15:12;9.67;37.99
71396;DHT22;59888;55.814;37.132;2023-04-24T01:17:37;9.72;37.85
71396;DHT22;59888;55.814;37.132;2023-04-24T01:20:05;9.69;37.71
71396;DHT22;59888;55.814;37.132;2023-04-24T01:22:35;9.69;37.79
71396;DHT22;59888;55.814;37.132;2023-04-24T01:25:03;9.71;37.43
71396;DHT22;59888;55.814;37.132;2023-04-24T01:27:32;9.70;37.53
71396;DHT22;59888;55.814;37.132;2023-04-24T01:29:58;9.70;37.76
71396;DHT22;59888;55.814;37.132;2023-04-24T01:32:25;9.71;37.75
71396;DHT22;59888;55.814;37.132;2023-04-24T01:34:51;9.72;37.80
71396;DHT22;59888;55.814;37.132;2023-04-24T01:37:17;9.68;37.73
71396;DHT22;59888;55.814;37.132;2023-04-24T01:39:43;9.62;37.85
71396;DHT22;59888;55.814;37.132;2023-04-24T01:42:10;9.60;37.82
71396;DHT22;59888;55.814;37.132;2023-04-24T01:44:36;9.55;38.03
71396;DHT22;59888;55.814;37.132;2023-04-24T01:47:03;9.56;38.06
71396;DHT22;59888;55.814;37.132;2023-04-24T01:49:29;9.61;37.79
71396;DHT22;59888;55.814;37.132;2023-04-24T01:51:55;9.59;37.95
71396;DHT22;59888;55.814;37.132;2023-04-24T01:54:21;9.55;37.96
71396;DHT22;59888;55.814;37.132;2023-04-24T01:56:47;9.61;37.75
71396;DHT22;59888;55.814;37.132;2023-04-24T01:59:13;9.61;37.66
71396;DHT22;59888;55.814;37.132;2023-04-24T02:01:41;9.61;37.59
71396;DHT22;59888;55.814;37.132;2023-04-24T02:04:07;9.61;37.48
71396;DHT22;59888;55.814;37.132;2023-04-24T02:06:35;9.60;37.67
71396;DHT22;59888;55.814;37.132;2023-04-24T02:09:01;9.59;37.53
71396;DHT22;59888;55.814;37.132;2023-04-24T02:11:28;9.53;37.46
71396;DHT22;59888;55.814;37.132;2023-04-24T02:13:54;9.53;37.64
71396;DHT22;59888;55.814;37.132;2023-04-24T02:16:21;9.51;37.85
71396;DHT22;59888;55.814;37.132;2023-04-24T02:19:07;9.47;37.71
71396;DHT22;59888;55.814;37.132;2023-04-24T02:21:33;9.44;37.61
71396;DHT22;59888;55.814;37.132;2023-04-24T02:24:03;9.44;37.82
71396;DHT22;59888;55.814;37.132;2023-04-24T02:26:28;9.42;37.79
71396;DHT22;59888;55.814;37.132;2023-04-24T02:28:56;9.38;38.11
71396;DHT22;59888;55.814;37.132;2023-04-24T02:31:22;9.39;38.09
71396;DHT22;59888;55.814;37.132;2023-04-24T02:33:49;9.38;38.16
71396;DHT22;59888;55.814;37.132;2023-04-24T02:36:15;9.31;38.17
71396;DHT22;59888;55.814;37.132;2023-04-24T02:38:41;9.25;38.37
71396;DHT22;59888;55.814;37.132;2023-04-24T02:41:07;9.25;38.36
71396;DHT22;59888;55.814;37.132;2023-04-24T02:43:32;9.31;38.21
71396;DHT22;59888;55.814;37.132;2023-04-24T02:45:59;9.40;38.06
71396;DHT22;59888;55.814;37.132;2023-04-24T02:48:25;9.46;37.91
71396;DHT22;59888;55.814;37.132;2023-04-24T02:50:51;9.47;37.85
71396;DHT22;59888;55.814;37.132;2023-04-24T02:53:17;9.51;37.90
71396;DHT22;59888;55.814;37.132;2023-04-24T02:55:43;9.55;37.95
71396;DHT22;59888;55.814;37.132;2023-04-24T02:58:09;9.57;38.18
71396;DHT22;59888;55.814;37.132;2023-04-24T03:00:36;9.61;38.43
71396;DHT22;59888;55.814;37.132;2023-04-24T03:03:02;9.63;38.68
71396;DHT22;59888;55.814;37.132;2023-04-24T03:05:28;9.72;38.73
71396;DHT22;59888;55.814;37.132;2023-04-24T03:07:54;9.80;38.74
71396;DHT22;59888;55.814;37.132;2023-04-24T03:10:21;9.86;38.82
71396;DHT22;59888;55.814;37.132;2023-04-24T03:12:48;9.95;38.84
71396;DHT22;59888;55.814;37.132;2023-04-24T03:15:14;10.05;38.67
71396;DHT22;59888;55.814;37.132;2023-04-24T03:17:41;10.10;38.75
71396;DHT22;59888;55.814;37.132;2023-04-24T03:20:07;10.22;38.68
71396;DHT22;59888;55.814;37.132;2023-04-24T03:22:37;10.34;38.28
71396;DHT22;59888;55.814;37.132;2023-04-24T03:25:06;10.46;38.18
71396;DHT22;59888;55.814;37.132;2023-04-24T03:27:35;10.60;37.89
71396;DHT22;59888;55.814;37.132;2023-04-24T03:30:06;10.65;37.70
71396;DHT22;59888;55.814;37.132;2023-04-24T03:33:04;10.75;37.66
71396;DHT22;59888;55.814;37.132;2023-04-24T03:35:34;10.85;37.06
71396;DHT22;59888;55.814;37.132;2023-04-24T03:38:03;10.97;36.85
71396;DHT22;59888;55.814;37.132;2023-04-24T03:40:39;11.13;36.50
71396;DHT22;59888;55.814;37.132;2023-04-24T03:43:16;11.23;35.85
71396;DHT22;59888;55.814;37.132;2023-04-24T03:45:42;11.33;35.38
71396;DHT22;59888;55.814;37.132;2023-04-24T03:48:08;11.46;35.54
71396;DHT22;59888;55.814;37.132;2023-04-24T03:50:34;11.56;34.82
71396;DHT22;59888;55.814;37.132;2023-04-24T03:53:01;11.69;34.66
71396;DHT22;59888;55.814;37.132;2023-04-24T03:55:38;11.84;34.55
71396;DHT22;59888;55.814;37.132;2023-04-24T03:58:05;11.99;34.25
71396;DHT22;59888;55.814;37.132;2023-04-24T04:00:31;12.14;34.07
71396;DHT22;59888;55.814;37.132;2023-04-24T04:03:17;12.28;33.93
71396;DHT22;59888;55.814;37.132;2023-04-24T04:05:43;12.40;33.54
71396;DHT22;59888;55.814;37.132;2023-04-24T04:08:09;12.53;33.31
71396;DHT22;59888;55.814;37.132;2023-04-24T04:10:35;12.66;33.00
71396;DHT22;59888;55.814;37.132;2023-04-24T04:13:04;12.78;32.88
71396;DHT22;59888;55.814;37.132;2023-04-24T04:15:32;12.88;31.96
71396;DHT22;59888;55.814;37.132;2023-04-24T04:17:58;12.99;32.37
71396;DHT22;59888;55.814;37.132;2023-04-24T04:20:24;13.11;32.11
71396;DHT22;59888;55.814;37.132;2023-04-24T04:22:50;13.17;31.96
71396;DHT22;59888;55.814;37.132;2023-04-24T04:25:29;13.29;31.68
71396;DHT22;59888;55.814;37.132;2023-04-24T04:27:55;13.37;31.76
71396;DHT22;59888;55.814;37.132;2023-04-24T04:30:21;13.51;31.69
71396;DHT22;59888;55.814;37.132;2023-04-24T04:32:55;13.65;31.66
71396;DHT22;59888;55.814;37.132;2023-04-24T04:35:23;13.76;31.38
71396;DHT22;59888;55.814;37.132;2023-04-24T04:37:51;13.89;31.32
71396;DHT22;59888;55.814;37.132;2023-04-24T04:40:40;14.06;31.26
71396;DHT22;59888;55.814;37.132;2023-04-24T04:43:06;14.15;31.10
71396;DHT22;59888;55.814;37.132;2023-04-24T04:45:40;14.33;30.00
71396;DHT22;59888;55.814;37.132;2023-04-24T04:48:22;14.48;30.64
71396;DHT22;59888;55.814;37.132;2023-04-24T04:50:49;14.60;30.79
71396;DHT22;59888;55.814;37.132;2023-04-24T04:53:16;14.83;30.48
71396;DHT22;59888;55.814;37.132;2023-04-24T04:55:42;14.97;29.87
71396;DHT22;59888;55.814;37.132;2023-04-24T04:58:14;15.01;30.03
71396;DHT22;59888;55.814;37.132;2023-04-24T05:00:40;15.14;30.15
71396;DHT22;59888;55.814;37.132;2023-04-24T05:03:15;15.32;29.68
71396;DHT22;59888;55.814;37.132;2023-04-24T05:05:41;15.47;29.26
71396;DHT22;59888;55.814;37.132;2023-04-24T05:08:11;15.52;29.32
71396;DHT22;59888;55.814;37.132;2023-04-24T05:10:37;15.58;29.67
71396;DHT22;59888;55.814;37.132;2023-04-24T05:13:03;15.67;29.11
71396;DHT22;59888;55.814;37.132;2023-04-24T05:15:31;15.75;29.26
71396;DHT22;59888;55.814;37.132;2023-04-24T05:17:59;15.88;29.22
71396;DHT22;59888;55.814;37.132;2023-04-24T05:20:25;16.00;28.81
71396;DHT22;59888;55.814;37.132;2023-04-24T05:22:51;16.17;28.75
71396;DHT22;59888;55.814;37.132;2023-04-24T05:25:18;16.31;28.79
71396;DHT22;59888;55.814;37.132;2023-04-24T05:27:53;16.49;28.66
71396;DHT22;59888;55.814;37.132;2023-04-24T05:30:19;16.62;28.52
71396;DHT22;59888;55.814;37.132;2023-04-24T05:32:45;16.76;28.54
71396;DHT22;59888;55.814;37.132;2023-04-24T05:35:12;17.00;28.28
71396;DHT22;59888;55.814;37.132;2023-04-24T05:37:38;17.05;28.29
71396;DHT22;59888;55.814;37.132;2023-04-24T05:40:05;17.17;28.16
71396;DHT22;59888;55.814;37.132;2023-04-24T05:42:31;17.31;27.46
71396;DHT22;59888;55.814;37.132;2023-04-24T05:44:57;17.33;27.76
71396;DHT22;59888;55.814;37.132;2023-04-24T05:47:23;17.48;27.94
71396;DHT22;59888;55.814;37.132;2023-04-24T05:49:51;17.64;27.77
71396;DHT22;59888;55.814;37.132;2023-04-24T05:52:16;17.76;27.75
71396;DHT22;59888;55.814;37.132;2023-04-24T05:54:42;17.88;27.37
71396;DHT22;59888;55.814;37.132;2023-04-24T05:57:11;17.91;27.22
71396;DHT22;59888;55.814;37.132;2023-04-24T05:59:51;17.96;27.20
71396;DHT22;59888;55.814;37.132;2023-04-24T06:02:19;18.05;26.99
71396;DHT22;59888;55.814;37.132;2023-04-24T06:04:45;18.13;27.01
71396;DHT22;59888;55.814;37.132;2023-04-24T06:07:11;18.30;26.80
71396;DHT22;59888;55.814;37.132;2023-04-24T06:09:38;18.44;26.42
71396;DHT22;59888;55.814;37.132;2023-04-24T06:12:04;18.53;26.47
71396;DHT22;59888;55.814;37.132;2023-04-24T06:14:45;18.61;26.25
71396;DHT22;59888;55.814;37.132;2023-04-24T06:17:34;18.79;26.23
71396;DHT22;59888;55.814;37.132;2023-04-24T06:20:00;18.93;26.26
71396;DHT22;59888;55.814;37.132;2023-04-24T06:22:26;18.97;25.88
71396;DHT22;59888;55.814;37.132;2023-04-24T06:24:52;19.15;25.72
71396;DHT22;59888;55.814;37.132;2023-04-24T06:27:18;19.35;25.69
71396;DHT22;59888;55.814;37.132;2023-04-24T06:29:44;19.47;25.47
71396;DHT22;59888;55.814;37.132;2023-04-24T06:32:10;19.66;25.30
71396;DHT22;59888;55.814;37.132;2023-04-24T06:34:36;19.77;25.09
71396;DHT22;59888;55.814;37.132;2023-04-24T06:37:02;19.96;24.99
71396;DHT22;59888;55.814;37.132;2023-04-24T06:39:28;20.17;24.78
71396;DHT22;59888;55.814;37.132;2023-04-24T06:41:53;20.29;24.45
71396;DHT22;59888;55.814;37.132;2023-04-24T06:44:20;20.41;24.27
71396;DHT22;59888;55.814;37.132;2023-04-24T06:46:46;20.57;24.08
71396;DHT22;59888;55.814;37.132;2023-04-24T06:49:12;20.64;23.93
71396;DHT22;59888;55.814;37.132;2023-04-24T06:51:41;20.68;23.82
71396;DHT22;59888;55.814;37.132;2023-04-24T06:54:07;20.65;22.90
71396;DHT22;59888;55.814;37.132;2023-04-24T06:56:33;20.63;23.34
71396;DHT22;59888;55.814;37.132;2023-04-24T06:58:59;20.60;23.42
71396;DHT22;59888;55.814;37.132;2023-04-24T07:01:25;20.65;23.47
71396;DHT22;59888;55.814;37.132;2023-04-24T07:03:51;20.62;23.37
71396;DHT22;59888;55.814;37.132;2023-04-24T07:06:19;20.70;23.62
71396;DHT22;59888;55.814;37.132;2023-04-24T07:08:48;20.86;23.46
71396;DHT22;59888;55.814;37.132;2023-04-24T07:11:14;20.95;23.40
71396;DHT22;59888;55.814;37.132;2023-04-24T07:13:40;21.06;23.34
71396;DHT22;59888;55.814;37.132;2023-04-24T07:16:08;21.22;23.19
71396;DHT22;59888;55.814;37.132;2023-04-24T07:18:34;21.42;23.06
71396;DHT22;59888;55.814;37.132;2023-04-24T07:21:02;21.64;22.73
71396;DHT22;59888;55.814;37.132;2023-04-24T07:23:28;21.74;22.51
71396;DHT22;59888;55.814;37.132;2023-04-24T07:25:54;21.73;22.09
71396;DHT22;59888;55.814;37.132;2023-04-24T07:28:20;21.72;22.21
71396;DHT22;59888;55.814;37.132;2023-04-24T07:30:46;21.83;22.12
71396;DHT22;59888;55.814;37.132;2023-04-24T07:33:12;21.83;22.05
71396;DHT22;59888;55.814;37.132;2023-04-24T07:35:39;21.89;22.08
71396;DHT22;59888;55.814;37.132;2023-04-24T07:38:05;21.93;21.92
71396;DHT22;59888;55.814;37.132;2023-04-24T07:40:31;22.04;21.78
71396;DHT22;59888;55.814;37.132;2023-04-24T07:42:57;21.99;20.27
71396;DHT22;59888;55.814;37.132;2023-04-24T07:45:23;21.97;21.06
71396;DHT22;59888;55.814;37.132;2023-04-24T07:47:51;21.99;20.54
71396;DHT22;59888;55.814;37.132;2023-04-24T07:50:17;21.95;20.50
71396;DHT22;59888;55.814;37.132;2023-04-24T07:52:43;21.94;20.99
71396;DHT22;59888;55.814;37.132;2023-04-24T07:55:09;22.01;20.65
71396;DHT22;59888;55.814;37.132;2023-04-24T07:57:35;22.05;20.43
71396;DHT22;59888;55.814;37.132;2023-04-24T08:00:03;22.25;20.71
71396;DHT22;59888;55.814;37.132;2023-04-24T08:02:37;22.35;19.98
71396;DHT22;59888;55.814;37.132;2023-04-24T08:05:03;22.37;20.32
71396;DHT22;59888;55.814;37.132;2023-04-24T08:07:30;22.25;18.02
71396;DHT22;59888;55.814;37.132;2023-04-24T08:09:56;22.01;18.53
71396;DHT22;59888;55.814;37.132;2023-04-24T08:12:22;22.10;18.36
71396;DHT22;59888;55.814;37.132;2023-04-24T08:14:48;22.27;19.18
71396;DHT22;59888;55.814;37.132;2023-04-24T08:17:14;22.44;19.35
71396;DHT22;59888;55.814;37.132;2023-04-24T08:19:40;22.60;19.02
71396;DHT22;59888;55.814;37.132;2023-04-24T08:22:14;22.66;19.29
71396;DHT22;59888;55.814;37.132;2023-04-24T08:24:40;22.66;16.71
71396;DHT22;59888;55.814;37.132;2023-04-24T08:27:06;22.55;18.40
71396;DHT22;59888;55.814;37.132;2023-04-24T08:29:32;22.60;18.50
71396;DHT22;59888;55.814;37.132;2023-04-24T08:31:58;22.71;18.23
71396;DHT22;59888;55.814;37.132;2023-04-24T08:34:24;22.68;18.06
71396;DHT22;59888;55.814;37.132;2023-04-24T08:36:50;22.65;17.96
71396;DHT22;59888;55.814;37.132;2023-04-24T08:39:17;22.62;18.20
71396;DHT22;59888;55.814;37.132;2023-04-24T08:41:43;22.49;16.58
71396;DHT22;59888;55.814;37.132;2023-04-24T08:44:11;22.34;17.87
71396;DHT22;59888;55.814;37.132;2023-04-24T08:46:39;22.25;18.18
71396;DHT22;59888;55.814;37.132;2023-04-24T08:49:06;22.28;18.22
71396;DHT22;59888;55.814;37.132;2023-04-24T08:51:32;22.29;18.48
71396;DHT22;59888;55.814;37.132;2023-04-24T08:53:58;22.32;17.95
71396;DHT22;59888;55.814;37.132;2023-04-24T08:56:24;22.49;17.38
71396;DHT22;59888;55.814;37.132;2023-04-24T08:58:51;22.75;18.16
71396;DHT22;59888;55.814;37.132;2023-04-24T09:01:19;23.01;18.17
71396;DHT22;59888;55.814;37.132;2023-04-24T09:03:48;23.26;18.00
71396;DHT22;59888;55.814;37.132;2023-04-24T09:06:14;23.53;17.67
71396;DHT22;59888;55.814;37.132;2023-04-24T09:08:42;23.56;17.41
71396;DHT22;59888;55.814;37.132;2023-04-24T09:11:09;23.60;17.22
71396;DHT22;59888;55.814;37.132;2023-04-24T09:13:37;23.80;17.45
71396;DHT22;59888;55.814;37.132;2023-04-24T09:16:03;24.00;17.20
71396;DHT22;59888;55.814;37.132;2023-04-24T09:18:29;24.09;16.98
71396;DHT22;59888;55.814;37.132;2023-04-24T09:21:00;24.01;16.51
71396;DHT22;59888;55.814;37.132;2023-04-24T09:23:30;23.75;16.79
71396;DHT22;59888;55.814;37.132;2023-04-24T09:25:57;23.50;15.41
71396;DHT22;59888;55.814;37.132;2023-04-24T09:28:36;23.53;16.46
71396;DHT22;59888;55.814;37.132;2023-04-24T09:31:06;23.57;16.48
71396;DHT22;59888;55.814;37.132;2023-04-24T09:33:33;23.76;17.22
71396;DHT22;59888;55.814;37.132;2023-04-24T09:35:59;23.76;16.21
71396;DHT22;59888;55.814;37.132;2023-04-24T09:38:35;23.68;15.38
71396;DHT22;59888;55.814;37.132;2023-04-24T09:41:06;23.85;16.43
71396;DHT22;59888;55.814;37.132;2023-04-24T09:43:33;24.10;16.72
71396;DHT22;59888;55.814;37.132;2023-04-24T09:46:05;24.17;16.42
71396;DHT22;59888;55.814;37.132;2023-04-24T09:48:36;24.31;15.29
71396;DHT22;59888;55.814;37.132;2023-04-24T09:51:04;24.43;16.36
71396;DHT22;59888;55.814;37.132;2023-04-24T09:53:32;24.57;16.58
71396;DHT22;59888;55.814;37.132;2023-04-24T09:56:08;24.72;16.25
71396;DHT22;59888;55.814;37.132;2023-04-24T09:58:36;24.83;14.73
71396;DHT22;59888;55.814;37.132;2023-04-24T10:01:02;24.84;16.71
71396;DHT22;59888;55.814;37.132;2023-04-24T10:03:32;24.74;15.84
71396;DHT22;59888;55.814;37.132;2023-04-24T10:06:00;24.83;15.70
71396;DHT22;59888;55.814;37.132;2023-04-24T10:08:26;24.85;15.11
71396;DHT22;59888;55.814;37.132;2023-04-24T10:10:59;24.88;16.31
71396;DHT22;59888;55.814;37.132;2023-04-24T10:13:25;25.14;16.08
71396;DHT22;59888;55.814;37.132;2023-04-24T10:15:51;25.35;16.48
71396;DHT22;59888;55.814;37.132;2023-04-24T10:18:18;25.40;13.74
71396;DHT22;59888;55.814;37.132;2023-04-24T10:20:46;25.43;14.12
71396;DHT22;59888;55.814;37.132;2023-04-24T10:23:13;25.25;15.64
71396;DHT22;59888;55.814;37.132;2023-04-24T10:25:39;25.22;15.54
71396;DHT22;59888;55.814;37.132;2023-04-24T10:28:05;25.27;15.64
71396;DHT22;59888;55.814;37.132;2023-04-24T10:30:34;25.34;15.97
71396;DHT22;59888;55.814;37.132;2023-04-24T10:33:05;25.51;15.82
71396;DHT22;59888;55.814;37.132;2023-04-24T10:35:35;25.59;15.19
71396;DHT22;59888;55.814;37.132;2023-04-24T10:38:15;25.50;15.19
71396;DHT22;59888;55.814;37.132;2023-04-24T10:40:42;25.42;15.51
71396;DHT22;59888;55.814;37.132;2023-04-24T10:43:09;25.08;15.71
71396;DHT22;59888;55.814;37.132;2023-04-24T10:45:37;24.70;15.47
71396;DHT22;59888;55.814;37.132;2023-04-24T10:48:07;24.46;15.54
71396;DHT22;59888;55.814;37.132;2023-04-24T10:50:48;24.29;15.29
71396;DHT22;59888;55.814;37.132;2023-04-24T10:53:18;24.15;15.48
71396;DHT22;59888;55.814;37.132;2023-04-24T10:55:50;24.05;16.09
71396;DHT22;59888;55.814;37.132;2023-04-24T10:58:22;24.16;15.97
71396;DHT22;59888;55.814;37.132;2023-04-24T11:00:58;24.32;15.54
71396;DHT22;59888;55.814;37.132;2023-04-24T11:03:25;24.56;16.01
71396;DHT22;59888;55.814;37.132;2023-04-24T11:06:03;24.84;15.28
71396;DHT22;59888;55.814;37.132;2023-04-24T11:08:42;25.02;15.61
71396;DHT22;59888;55.814;37.132;2023-04-24T11:11:14;25.22;15.55
71396;DHT22;59888;55.814;37.132;2023-04-24T11:16:26;25.44;14.93
71396;DHT22;59888;55.814;37.132;2023-04-24T11:19:26;25.42;14.75
71396;DHT22;59888;55.814;37.132;2023-04-24T11:22:02;25.44;15.28
71396;DHT22;59888;55.814;37.132;2023-04-24T11:27:20;25.58;15.06
71396;DHT22;59888;55.814;37.132;2023-04-24T11:32:28;25.73;14.45
71396;DHT22;59888;55.814;37.132;2023-04-24T11:35:02;25.65;14.68
71396;DHT22;59888;55.814;37.132;2023-04-24T11:37:43;25.59;14.39
71396;DHT22;59888;55.814;37.132;2023-04-24T11:40:13;25.59;14.85
71396;DHT22;59888;55.814;37.132;2023-04-24T11:42:46;25.46;14.85
71396;DHT22;59888;55.814;37.132;2023-04-24T11:45:26;25.48;14.62
71396;DHT22;59888;55.814;37.132;2023-04-24T11:47:52;25.67;14.81
71396;DHT22;59888;55.814;37.132;2023-04-24T11:50:22;25.86;14.58
71396;DHT22;59888;55.814;37.132;2023-04-24T11:52:49;25.92;14.64
71396;DHT22;59888;55.814;37.132;2023-04-24T11:57:46;26.25;14.50
71396;DHT22;59888;55.814;37.132;2023-04-24T12:00:27;26.36;13.43
71396;DHT22;59888;55.814;37.132;2023-04-24T12:03:07;26.47;14.73
71396;DHT22;59888;55.814;37.132;2023-04-24T12:05:33;26.58;14.57
71396;DHT22;59888;55.814;37.132;2023-04-24T12:08:00;26.67;14.83
71396;DHT22;59888;55.814;37.132;2023-04-24T12:10:28;26.49;11.36
71396;DHT22;59888;55.814;37.132;2023-04-24T12:12:56;26.16;11.92
71396;DHT22;59888;55.814;37.132;2023-04-24T12:15:23;25.91;11.61
71396;DHT22;59888;55.814;37.132;2023-04-24T12:17:53;25.74;13.39
71396;DHT22;59888;55.814;37.132;2023-04-24T12:20:27;25.97;13.75
71396;DHT22;59888;55.814;37.132;2023-04-24T12:22:54;26.07;13.68
71396;DHT22;59888;55.814;37.132;2023-04-24T12:25:21;26.20;14.29
71396;DHT22;59888;55.814;37.132;2023-04-24T12:27:53;26.07;13.17
71396;DHT22;59888;55.814;37.132;2023-04-24T12:30:19;25.81;14.29
71396;DHT22;59888;55.814;37.132;2023-04-24T12:32:49;25.78;13.97
71396;DHT22;59888;55.814;37.132;2023-04-24T12:35:23;25.94;13.81
71396;DHT22;59888;55.814;37.132;2023-04-24T12:37:50;26.20;14.41
71396;DHT22;59888;55.814;37.132;2023-04-24T12:40:17;26.68;13.78
71396;DHT22;59888;55.814;37.132;2023-04-24T12:42:49;27.30;13.88
71396;DHT22;59888;55.814;37.132;2023-04-24T12:45:17;28.62;13.49
71396;DHT22;59888;55.814;37.132;2023-04-24T12:47:44;0.00;0.00
71396;DHT22;59888;55.814;37.132;2023-04-24T12:50:13;0.00;0.00
71396;DHT22;59888;55.814;37.132;2023-04-24T12:52:39;0.00;0.00
71396;DHT22;59888;55.814;37.132;2023-04-24T12:55:06;0.00;0.00
71396;DHT22;59888;55.814;37.132;2023-04-24T12:57:34;0.00;0.00
71396;DHT22;59888;55.814;37.132;2023-04-24T13:00:01;35.75;9.47
71396;DHT22;59888;55.814;37.132;2023-04-24T13:02:34;36.86;9.84
71396;DHT22;59888;55.814;37.132;2023-04-24T13:05:01;37.78;9.17
71396;DHT22;59888;55.814;37.132;2023-04-24T13:07:33;38.69;7.60
71396;DHT22;59888;55.814;37.132;2023-04-24T13:09:59;39.47;8.24
71396;DHT22;59888;55.814;37.132;2023-04-24T13:12:25;37.52;7.04
71396;DHT22;59888;55.814;37.132;2023-04-24T13:14:53;35.26;7.45
71396;DHT22;59888;55.814;37.132;2023-04-24T13:17:19;33.43;9.19
71396;DHT22;59888;55.814;37.132;2023-04-24T13:19:45;32.12;9.20
71396;DHT22;59888;55.814;37.132;2023-04-24T13:22:12;30.97;10.20
71396;DHT22;59888;55.814;37.132;2023-04-24T13:24:39;30.13;10.15
71396;DHT22;59888;55.814;37.132;2023-04-24T13:27:08;29.37;10.88
71396;DHT22;59888;55.814;37.132;2023-04-24T13:29:36;29.89;12.10
71396;DHT22;59888;55.814;37.132;2023-04-24T13:32:02;32.59;11.57
71396;DHT22;59888;55.814;37.132;2023-04-24T13:34:28;32.40;9.95
71396;DHT22;59888;55.814;37.132;2023-04-24T13:36:55;33.93;11.06
71396;DHT22;59888;55.814;37.132;2023-04-24T13:39:23;36.43;9.73
71396;DHT22;59888;55.814;37.132;2023-04-24T13:41:49;38.23;9.91
71396;DHT22;59888;55.814;37.132;2023-04-24T13:44:16;39.22;7.54
71396;DHT22;59888;55.814;37.132;2023-04-24T13:46:43;38.25;8.41
71396;DHT22;59888;55.814;37.132;2023-04-24T13:49:12;37.32;8.02
71396;DHT22;59888;55.814;37.132;2023-04-24T13:51:39;35.62;8.50
71396;DHT22;59888;55.814;37.132;2023-04-24T13:54:06;34.49;9.33
71396;DHT22;59888;55.814;37.132;2023-04-24T13:56:32;33.26;8.98
71396;DHT22;59888;55.814;37.132;2023-04-24T13:58:58;32.12;9.25
71396;DHT22;59888;55.814;37.132;2023-04-24T14:01:25;31.11;9.66
71396;DHT22;59888;55.814;37.132;2023-04-24T14:03:51;30.07;10.02
71396;DHT22;59888;55.814;37.132;2023-04-24T14:06:19;29.44;10.50
71396;DHT22;59888;55.814;37.132;2023-04-24T14:08:46;29.04;10.89
71396;DHT22;59888;55.814;37.132;2023-04-24T14:11:12;28.62;11.25
71396;DHT22;59888;55.814;37.132;2023-04-24T14:13:40;29.70;9.43
71396;DHT22;59888;55.814;37.132;2023-04-24T14:16:06;30.28;10.19
71396;DHT22;59888;55.814;37.132;2023-04-24T14:18:32;29.54;10.49
71396;DHT22;59888;55.814;37.132;2023-04-24T14:20:58;29.02;10.65
71396;DHT22;59888;55.814;37.132;2023-04-24T14:23:25;28.67;11.36
71396;DHT22;59888;55.814;37.132;2023-04-24T14:25:50;28.53;11.04
71396;DHT22;59888;55.814;37.132;2023-04-24T14:28:19;28.20;11.23
71396;DHT22;59888;55.814;37.132;2023-04-24T14:30:46;27.81;11.39
71396;DHT22;59888;55.814;37.132;2023-04-24T14:33:12;27.50;11.56
71396;DHT22;59888;55.814;37.132;2023-04-24T14:35:40;28.94;12.05
71396;DHT22;59888;55.814;37.132;2023-04-24T14:38:08;30.91;11.22
71396;DHT22;59888;55.814;37.132;2023-04-24T14:40:34;32.35;9.68
71396;DHT22;59888;55.814;37.132;2023-04-24T14:43:00;33.46;8.76
71396;DHT22;59888;55.814;37.132;2023-04-24T14:45:26;33.01;8.82
71396;DHT22;59888;55.814;37.132;2023-04-24T14:47:53;32.98;9.88
71396;DHT22;59888;55.814;37.132;2023-04-24T14:50:20;34.16;9.23
71396;DHT22;59888;55.814;37.132;2023-04-24T14:52:46;35.23;9.01
71396;DHT22;59888;55.814;37.132;2023-04-24T14:55:12;36.09;8.16
71396;DHT22;59888;55.814;37.132;2023-04-24T14:57:39;36.85;7.94
71396;DHT22;59888;55.814;37.132;2023-04-24T15:00:08;37.78;7.70
71396;DHT22;59888;55.814;37.132;2023-04-24T15:02:36;38.55;7.72
71396;DHT22;59888;55.814;37.132;2023-04-24T15:05:06;38.78;6.20
71396;DHT22;59888;55.814;37.132;2023-04-24T15:07:33;38.23;5.71
71396;DHT22;59888;55.814;37.132;2023-04-24T15:09:59;37.25;6.56
71396;DHT22;59888;55.814;37.132;2023-04-24T15:12:25;36.71;7.01
71396;DHT22;59888;55.814;37.132;2023-04-24T15:14:51;36.08;6.79
71396;DHT22;59888;55.814;37.132;2023-04-24T15:17:17;35.95;6.27
71396;DHT22;59888;55.814;37.132;2023-04-24T15:19:43;35.58;6.77
71396;DHT22;59888;55.814;37.132;2023-04-24T15:22:09;35.14;5.82
71396;DHT22;59888;55.814;37.132;2023-04-24T15:24:35;34.95;6.54
71396;DHT22;59888;55.814;37.132;2023-04-24T15:27:01;34.55;7.14
71396;DHT22;59888;55.814;37.132;2023-04-24T15:29:29;34.75;7.18
71396;DHT22;59888;55.814;37.132;2023-04-24T15:31:55;34.66;7.49
71396;DHT22;59888;55.814;37.132;2023-04-24T15:34:21;33.97;7.24
71396;DHT22;59888;55.814;37.132;2023-04-24T15:36:47;33.79;7.59